Etusivu
METAR-TAF:

METAR-TAF

Lentoasemat :

Anniston, Alabama, Yhdysvallat

Leveyspiiri: 33-35-26N, Pituuspiiri: 085-50-51W, korkeus merenpinnasta: 186 m

Tämänhetkinen sää

Tämä raportti tehtiin 1 tunti ja 7 minuuttia sitten, kello 11.53 UTC
Tuuli 3 kn idästä/koillisesta
Lämpötila -7°C
Kosteus 93%
Ilmanpaine 1028 hPa
Näkyvyys: 16.1 km
selkeää

METAR: KANB 131153Z AUTO 07003KT 10SM CLR M07/M08 A3035 RMK AO2 SLP293 70002 T10671083 11056 21067 53014

Aika: 07:00 (13:00 UTC)

Sääennuste

Tämä raportti tehtiin 1 tunti ja 39 minuuttia sitten, kello 11.21 UTC
Ennuste voimassa 13. päivästä klo 12 UTC - 14. päivään klo 12 UTC
Tuuli 3 kn koillisesta
Näkyvyys: 10 km
selkeää
From 13. päivästä klo 1500 UTC
Tuuli 6 kn idästä/koillisesta
Näkyvyys: 10 km
selkeää
From 13. päivästä klo 2200 UTC
Tuuli 5 kn idästä
Näkyvyys: 10 km
Hajanaisia pilviä 25000 ft:n korkeudessa

TAF: KANB 131121Z 1312/1412 05003KT P6SM SKC FM131500 07006KT P6SM SKC FM132200 09005KT P6SM SCT250

Säähavainnot ja -ennusteet yli 4000 lentoasemalta (METAR- ja TAF-raportit).

Käytössä olevat sääasemat on merkitty karttaan keltaisilla ja punaisilla pisteillä.

Aseta hiiri pisteen päälle nähdäksesi sääaseman nimen.

Klikkaa sitten nähdäksesi säähavainnot ja -ennusteet.

Kartan vaihtaminen: klikkaa mustalla rastilla varustettuja vihreitä pisteitä, niin voit zoomata sisään; viivalla varustettua vihreää pistettä, niin voit zoomata ulos tai vihreitä nuolia, niin pääset viereisille kartoille.


METAR-TAF: